Aérodrome :







RETROUVEZ-NOUS SUR...

 
LOGIN :

S'inscrire | Disclaimer

   EN    FR    IT 

 









Légende :    VFR   VFR Marginal   IFR   IFR Intensif   IFR Très Intensif
Visi : 
Plafond : 
>= 8 km
>= 3000ft
5 à 8 km
1000 à 3000 ft
1500m à 5 km
500 à 1000 ft
800 à 1500m
200 à 500 ft
< 800m
< 200 ft
Symboles :   Orages  Brouillard  Fortes neiges  Fortes précipitations  Vent > 20 kt






- Altitude de l'aérodrome : 160 ft
- Code IATA : YYG


CYYG - Charlottetown

DERNIER METAR :
  • 210020Z 03011G17KT 15SM FEW009 BKN015 OVC020 04/02 A2984 RMK SF2SF2SC4 SLP108

METARs EXPIRÉS :
  • 210000Z 03015G20KT 12SM -RA FEW009 OVC015 04/02 A2983 RMK SF2SC6 SLP106
  • 202303Z 03016G23KT 10SM -RA SCT009 OVC014 04/02 A2982 RMK SF4SC4 SLP102
  • 202247Z 03019KT 10SM SCT009 OVC015 03/02 A2982 RMK SF4SC4 SLP101
  • 202200Z 03016G26KT 8SM -RA OVC009 03/02 A2982 RMK SF8 SLP102

TAF TAF CYYG
Valide du 21 à 00h jusqu'au 21 à 12h UTC


202338Z 2100/2112 03015G25KT P6SM OVC012
TEMPO 2100/2101 3SM -RA -DZ BR OVC007
FM210100 04012G22KT 6SM -RA BR FEW006 OVC012
TEMPO 2101/2108 2SM -RA -DZ BR OVC006
PROB30 2103/2108 1SM -DZ BR OVC004
FM210800 03015G25KT 2SM -RA BR OVC005
TEMPO 2108/2112 5SM -DZ BR OVC008 RMK NXT FCST BY 210600Z



MET'MAP, la Météo Aéronautique d'un coup d'oeil ! - Copyright ORBIFLY Décembre 2007 - Disclaimer

ORBIFLY MET'MAP TEAM :

Programmation & Développement : Alexandra Zaïnal
Conception & Développement : Baudouin d'Aumeries
Co-Programmation & Développement : Marc-Olivier Méhu
Soutien technique & logistique : Manuel Goepfert

Contact : metmap@orbifly.com




SOURCES & CREDITS :

   NOAA